Time;durP1;ratioP1;P1;durP2;ratioP2;P2;SDS_P1;SDS_P2;PMS_P1;PMS_P2;Temp;Humidity;BMP_temperature;BMP_pressure;BME280_temperature;BME280_humidity;BME280_pressure;Samples;Min_cycle;Max_cycle;Signal;HPM_P1;HPM_P2
2023/10/22 00:02:11;;;;;;;3.47;0.90;;;15.00;99.90;;;;;;4966418;28;20607;-19
2023/10/22 00:04:40;;;;;;;1.77;0.88;;;15.00;99.90;;;;;;4937695;28;20027;-19
2023/10/22 00:07:06;;;;;;;2.10;0.80;;;15.00;99.90;;;;;;4953467;28;20039;-19
2023/10/22 00:09:32;;;;;;;1.50;0.90;;;15.10;99.90;;;;;;4971479;28;20447;-17
2023/10/22 00:11:58;;;;;;;1.13;0.85;;;15.10;99.90;;;;;;4917790;28;20362;-17
2023/10/22 00:14:24;;;;;;;2.17;0.80;;;15.10;99.90;;;;;;4964044;28;20097;-17
2023/10/22 00:16:49;;;;;;;1.70;0.80;;;15.10;99.90;;;;;;4964467;28;20535;-17
2023/10/22 00:19:15;;;;;;;1.93;0.70;;;15.10;99.90;;;;;;4956623;28;20109;-17
2023/10/22 00:21:41;;;;;;;1.40;0.73;;;15.10;99.90;;;;;;4962009;28;20229;-17
2023/10/22 00:24:07;;;;;;;3.23;0.80;;;15.20;99.90;;;;;;4971120;28;20058;-17
2023/10/22 00:26:33;;;;;;;3.17;0.90;;;15.10;99.90;;;;;;4919804;28;20038;-18
2023/10/22 00:28:58;;;;;;;1.00;0.80;;;15.20;99.90;;;;;;4961970;28;20022;-17
2023/10/22 00:31:24;;;;;;;2.60;0.80;;;15.20;99.90;;;;;;4966602;28;20061;-18
2023/10/22 00:33:50;;;;;;;2.00;0.93;;;15.30;99.90;;;;;;4951942;28;20601;-18
2023/10/22 00:36:15;;;;;;;2.00;0.87;;;15.30;99.90;;;;;;4983531;28;20247;-17
2023/10/22 00:38:41;;;;;;;1.85;0.90;;;15.30;99.90;;;;;;4969856;28;20026;-18
2023/10/22 00:41:07;;;;;;;0.80;0.70;;;15.30;99.90;;;;;;4943659;28;20044;-17
2023/10/22 00:43:32;;;;;;;2.35;1.10;;;15.30;99.90;;;;;;4946825;28;20493;-17
2023/10/22 00:45:58;;;;;;;1.00;0.77;;;15.30;99.90;;;;;;4963001;28;20065;-18
2023/10/22 00:48:28;;;;;;;1.73;0.80;;;15.30;99.90;;;;;;4970844;28;20045;-17
2023/10/22 00:50:55;;;;;;;1.08;0.80;;;15.30;99.90;;;;;;4957649;28;20026;-18
2023/10/22 00:53:23;;;;;;;1.65;0.90;;;15.40;99.90;;;;;;4965926;28;20237;-18
2023/10/22 00:55:50;;;;;;;1.97;0.90;;;15.40;99.90;;;;;;4964485;28;20049;-18
2023/10/22 00:58:17;;;;;;;1.08;0.73;;;15.40;99.90;;;;;;4920446;28;20050;-18
2023/10/22 01:00:44;;;;;;;2.03;0.80;;;15.40;99.90;;;;;;4966513;28;20033;-18
2023/10/22 01:03:09;;;;;;;2.03;0.80;;;15.40;99.90;;;;;;4956437;28;20148;-18
2023/10/22 01:05:39;;;;;;;1.70;0.90;;;15.40;99.90;;;;;;4959582;28;20022;-18
2023/10/22 01:08:05;;;;;;;1.27;0.80;;;15.40;99.90;;;;;;4964302;28;20113;-18
2023/10/22 01:10:34;;;;;;;1.77;1.00;;;15.50;99.90;;;;;;4963394;28;20065;-18
2023/10/22 01:13:01;;;;;;;0.93;0.60;;;15.50;99.90;;;;;;4911261;28;20077;-19
2023/10/22 01:15:27;;;;;;;2.50;0.70;;;15.50;99.90;;;;;;4968393;28;20081;-18
2023/10/22 01:17:53;;;;;;;1.58;0.80;;;15.50;99.90;;;;;;4962432;28;20034;-20
2023/10/22 01:20:19;;;;;;;1.35;0.73;;;15.50;99.90;;;;;;4960809;28;20061;-18
2023/10/22 01:22:45;;;;;;;2.67;0.90;;;15.50;99.90;;;;;;4966274;28;20018;-19
2023/10/22 01:25:11;;;;;;;1.70;0.60;;;15.50;99.90;;;;;;4974658;28;20097;-18
2023/10/22 01:27:38;;;;;;;1.20;0.80;;;15.50;99.90;;;;;;4977950;28;20528;-19
2023/10/22 01:30:05;;;;;;;1.80;0.80;;;15.50;99.90;;;;;;4953741;28;20023;-19
2023/10/22 01:32:31;;;;;;;1.00;0.70;;;15.50;99.90;;;;;;4974390;28;20027;-19
2023/10/22 01:34:58;;;;;;;1.57;0.60;;;15.50;99.90;;;;;;4977638;28;20025;-19
2023/10/22 01:37:24;;;;;;;0.88;0.70;;;14.60;99.90;;;;;;4980071;28;20034;-19
2023/10/22 01:39:50;;;;;;;1.40;0.60;;;15.50;99.90;;;;;;4975533;28;20031;-19
2023/10/22 01:42:16;;;;;;;5.40;1.27;;;15.50;99.90;;;;;;4968167;28;20571;-19
2023/10/22 01:44:42;;;;;;;1.13;0.53;;;15.50;99.90;;;;;;4948932;28;20066;-19
2023/10/22 01:47:10;;;;;;;1.30;0.77;;;15.60;99.90;;;;;;4973644;28;20163;-19
2023/10/22 01:49:36;;;;;;;1.63;0.70;;;15.50;99.90;;;;;;4988001;28;20030;-19
2023/10/22 01:52:02;;;;;;;0.55;0.55;;;15.50;99.90;;;;;;4955227;28;20943;-19
2023/10/22 01:54:28;;;;;;;1.13;0.60;;;15.50;99.90;;;;;;4974069;28;20578;-19
2023/10/22 01:56:54;;;;;;;0.75;0.60;;;15.50;99.90;;;;;;4971179;28;20027;-19
2023/10/22 01:59:20;;;;;;;0.77;0.60;;;15.50;99.90;;;;;;4943045;28;20030;-19
2023/10/22 02:01:46;;;;;;;1.77;0.60;;;15.50;99.90;;;;;;4988384;28;20490;-19
2023/10/22 02:04:12;;;;;;;1.05;0.63;;;15.50;99.90;;;;;;4971697;28;20026;-19
2023/10/22 02:06:37;;;;;;;1.25;0.68;;;15.50;99.90;;;;;;4961446;28;20029;-19
2023/10/22 02:09:03;;;;;;;1.17;0.57;;;15.50;99.90;;;;;;4963258;28;20721;-21
2023/10/22 02:11:30;;;;;;;2.40;0.80;;;15.50;99.90;;;;;;4970882;28;20030;-21
2023/10/22 02:13:55;;;;;;;1.70;0.70;;;15.50;99.90;;;;;;4962643;28;20026;-21
2023/10/22 02:16:22;;;;;;;0.97;0.67;;;15.50;99.90;;;;;;4950342;28;20101;-21
2023/10/22 02:18:48;;;;;;;2.05;1.05;;;15.50;99.90;;;;;;4970242;28;20117;-21
2023/10/22 02:21:15;;;;;;;2.00;0.60;;;15.50;99.90;;;;;;4961930;28;20225;-21
2023/10/22 02:23:41;;;;;;;1.17;0.60;;;15.50;99.90;;;;;;4964044;28;20030;-21
2023/10/22 02:26:07;;;;;;;1.03;0.60;;;15.40;99.90;;;;;;4973503;28;20435;-22
2023/10/22 02:28:33;;;;;;;1.55;0.60;;;15.40;99.90;;;;;;4973385;28;20046;-20
2023/10/22 02:30:59;;;;;;;0.70;0.63;;;15.40;99.90;;;;;;4961219;28;20611;-21
2023/10/22 02:33:25;;;;;;;1.63;0.70;;;15.40;99.90;;;;;;4952684;28;20294;-21
2023/10/22 02:35:53;;;;;;;1.63;0.70;;;15.40;99.90;;;;;;4969473;28;20053;-22
2023/10/22 02:38:19;;;;;;;0.98;0.65;;;15.40;99.90;;;;;;4966461;28;20190;-22
2023/10/22 02:40:50;;;;;;;1.10;0.70;;;15.40;99.90;;;;;;4970583;28;20524;-22
2023/10/22 02:43:16;;;;;;;1.40;0.70;;;14.90;99.90;;;;;;4969946;28;20319;-22
2023/10/22 02:46:08;;;;;;;1.33;0.50;;;15.30;99.90;;;;;;4976250;28;20026;-21
2023/10/22 02:48:34;;;;;;;1.15;0.60;;;15.30;99.90;;;;;;4969470;28;20042;-21
2023/10/22 02:51:03;;;;;;;1.17;0.50;;;15.40;99.90;;;;;;4967577;28;20311;-22
2023/10/22 02:53:29;;;;;;;1.27;0.60;;;15.30;99.90;;;;;;4960559;28;20023;-22
2023/10/22 02:56:04;;;;;;;1.10;0.60;;;15.30;99.90;;;;;;4974902;28;20053;-22
2023/10/22 02:58:30;;;;;;;1.13;0.73;;;14.50;99.90;;;;;;4967284;28;20157;-22
2023/10/22 03:01:06;;;;;;;1.02;0.60;;;15.30;99.90;;;;;;4946961;28;20049;-22
2023/10/22 03:03:38;;;;;;;0.70;0.50;;;15.30;99.90;;;;;;4970518;28;20549;-22
2023/10/22 03:06:05;;;;;;;0.85;0.60;;;15.20;99.90;;;;;;4969476;28;20267;-22
2023/10/22 03:08:31;;;;;;;0.73;0.60;;;15.20;99.90;;;;;;4955704;28;20069;-22
2023/10/22 03:10:57;;;;;;;1.67;0.60;;;15.20;99.90;;;;;;4974007;28;20117;-22
2023/10/22 03:13:22;;;;;;;0.60;0.60;;;15.20;99.90;;;;;;4987606;28;20053;-22
2023/10/22 03:15:48;;;;;;;0.60;0.60;;;15.10;99.90;;;;;;4974107;28;20117;-22
2023/10/22 03:18:14;;;;;;;1.98;0.60;;;15.10;99.90;;;;;;4946381;28;20066;-22
2023/10/22 03:20:40;;;;;;;0.90;0.60;;;15.10;99.90;;;;;;4946375;28;20047;-22
2023/10/22 03:23:06;;;;;;;1.45;0.60;;;15.10;99.90;;;;;;4965168;28;20251;-22
2023/10/22 03:25:33;;;;;;;1.35;0.75;;;15.10;99.90;;;;;;4954730;28;20031;-22
2023/10/22 03:28:00;;;;;;;0.90;0.60;;;15.10;99.90;;;;;;4968696;28;20077;-22
2023/10/22 03:30:26;;;;;;;0.73;0.50;;;15.10;99.90;;;;;;4969285;28;20033;-22
2023/10/22 03:32:55;;;;;;;0.88;0.60;;;15.10;99.90;;;;;;4949559;28;20052;-22
2023/10/22 03:35:22;;;;;;;1.35;0.70;;;15.10;99.90;;;;;;4967463;28;20591;-22
2023/10/22 03:37:48;;;;;;;0.73;0.60;;;15.10;99.90;;;;;;4966360;28;20117;-22
2023/10/22 03:40:13;;;;;;;1.07;0.70;;;15.10;99.90;;;;;;4962862;28;20254;-22
2023/10/22 03:42:39;;;;;;;0.77;0.60;;;15.10;99.90;;;;;;4969162;28;20069;-22
2023/10/22 03:45:06;;;;;;;0.80;0.60;;;15.10;99.90;;;;;;4965671;28;20050;-22
2023/10/22 03:47:32;;;;;;;0.90;0.50;;;15.10;99.90;;;;;;4966512;28;20019;-22
2023/10/22 03:49:58;;;;;;;0.65;0.45;;;15.10;99.90;;;;;;4941989;28;20026;-22
2023/10/22 03:52:23;;;;;;;1.30;0.70;;;15.10;99.90;;;;;;4969838;28;20018;-22
2023/10/22 03:54:49;;;;;;;0.75;0.50;;;15.00;99.90;;;;;;4960002;28;20089;-22
2023/10/22 03:57:15;;;;;;;0.93;0.60;;;15.10;99.90;;;;;;4956616;28;20038;-22
2023/10/22 03:59:41;;;;;;;0.70;0.50;;;15.00;99.90;;;;;;4971490;28;20030;-22
2023/10/22 04:02:06;;;;;;;2.07;1.07;;;15.00;99.90;;;;;;4969216;28;20669;-22
2023/10/22 04:04:32;;;;;;;0.90;0.52;;;15.00;99.90;;;;;;4946243;28;20023;-22
2023/10/22 04:06:58;;;;;;;1.00;0.50;;;15.00;99.90;;;;;;4978628;28;20047;-22
2023/10/22 04:09:23;;;;;;;1.02;0.80;;;15.00;99.90;;;;;;4961867;28;20072;-22
2023/10/22 04:11:49;;;;;;;1.30;0.57;;;15.00;99.90;;;;;;4964830;28;20679;-22
2023/10/22 04:14:16;;;;;;;1.00;0.60;;;15.00;99.90;;;;;;4965530;28;20178;-22
2023/10/22 04:16:41;;;;;;;0.70;0.52;;;15.00;99.90;;;;;;4974865;28;20049;-22
2023/10/22 04:19:07;;;;;;;0.70;0.50;;;15.00;99.90;;;;;;4979457;28;20436;-22
2023/10/22 04:21:33;;;;;;;1.10;0.50;;;15.00;99.90;;;;;;4943570;28;20590;-22
2023/10/22 04:23:58;;;;;;;0.50;0.50;;;15.00;99.90;;;;;;4966034;28;20560;-22
2023/10/22 04:26:24;;;;;;;0.82;0.60;;;14.90;99.90;;;;;;4960552;28;20049;-22
2023/10/22 04:28:50;;;;;;;1.33;0.60;;;14.90;99.90;;;;;;4959718;28;20062;-22
2023/10/22 04:31:16;;;;;;;0.85;0.60;;;14.90;99.90;;;;;;4983554;28;20022;-22
2023/10/22 04:33:42;;;;;;;0.98;0.60;;;14.90;99.90;;;;;;4967900;28;20475;-22
2023/10/22 04:36:20;;;;;;;0.50;0.50;;;14.90;99.90;;;;;;4940676;28;20038;-22
2023/10/22 04:38:46;;;;;;;0.80;0.50;;;14.90;99.90;;;;;;4962184;28;20121;-22
2023/10/22 04:41:12;;;;;;;1.48;0.50;;;14.90;99.90;;;;;;4973544;28;20460;-22
2023/10/22 04:43:38;;;;;;;1.15;0.60;;;14.90;99.90;;;;;;4957724;28;20468;-22
2023/10/22 04:46:04;;;;;;;0.73;0.57;;;14.80;99.90;;;;;;4968040;28;20034;-22
2023/10/22 04:48:31;;;;;;;1.38;0.57;;;14.80;99.90;;;;;;4964137;28;20058;-22
2023/10/22 04:50:59;;;;;;;1.02;0.60;;;14.80;99.90;;;;;;4967914;28;20022;-22
2023/10/22 04:53:25;;;;;;;1.27;0.60;;;14.80;99.90;;;;;;4938917;28;20036;-22
2023/10/22 04:55:55;;;;;;;1.87;0.60;;;14.80;99.90;;;;;;4958506;28;20783;-22
2023/10/22 04:58:22;;;;;;;1.55;0.70;;;14.80;99.90;;;;;;4972364;28;20058;-22
2023/10/22 05:00:47;;;;;;;0.55;0.55;;;14.80;99.90;;;;;;4971386;28;20716;-22
2023/10/22 05:03:13;;;;;;;0.90;0.57;;;14.80;99.90;;;;;;4955059;28;20116;-22
2023/10/22 05:05:39;;;;;;;1.95;0.70;;;14.80;99.90;;;;;;4968752;28;20047;-22
2023/10/22 05:08:07;;;;;;;1.40;0.60;;;14.70;99.90;;;;;;4926121;28;20510;-22
2023/10/22 05:10:39;;;;;;;0.95;0.60;;;14.70;99.90;;;;;;4964919;28;20093;-22
2023/10/22 05:13:09;;;;;;;1.80;0.60;;;14.70;99.90;;;;;;4953854;28;20436;-22
2023/10/22 05:15:36;;;;;;;0.80;0.50;;;14.70;99.90;;;;;;4964848;28;20061;-22
2023/10/22 05:18:08;;;;;;;1.17;0.60;;;14.60;99.90;;;;;;4967662;28;20869;-22
2023/10/22 05:20:34;;;;;;;0.98;0.60;;;14.30;99.90;;;;;;4966620;28;20038;-22
2023/10/22 05:23:03;;;;;;;1.38;1.20;;;14.60;99.90;;;;;;4942153;28;20161;-22
2023/10/22 05:25:28;;;;;;;1.40;0.80;;;14.60;99.90;;;;;;4965471;28;20358;-22
2023/10/22 05:27:54;;;;;;;1.25;0.60;;;14.90;99.90;;;;;;4957152;28;20229;-22
2023/10/22 05:30:20;;;;;;;1.10;0.77;;;14.50;99.90;;;;;;4965907;28;20241;-22
2023/10/22 05:32:46;;;;;;;2.38;0.80;;;14.50;99.90;;;;;;4964595;28;20619;-22
2023/10/22 05:35:12;;;;;;;0.80;0.60;;;14.50;99.90;;;;;;4964558;28;20083;-22
2023/10/22 05:37:41;;;;;;;0.80;0.70;;;14.50;99.90;;;;;;4970707;28;20084;-22
2023/10/22 05:40:09;;;;;;;1.50;0.70;;;14.50;99.90;;;;;;4939149;28;20054;-22
2023/10/22 05:42:34;;;;;;;2.80;0.90;;;14.50;99.90;;;;;;4972185;28;20045;-22
2023/10/22 05:45:00;;;;;;;2.17;0.80;;;14.50;99.90;;;;;;4965186;28;20035;-22
2023/10/22 05:47:29;;;;;;;1.88;0.70;;;14.50;99.90;;;;;;4959469;28;20113;-22
2023/10/22 05:49:55;;;;;;;1.35;0.60;;;14.40;99.90;;;;;;4971215;28;20046;-21
2023/10/22 05:52:21;;;;;;;1.13;0.60;;;14.50;99.90;;;;;;4970594;28;20165;-22
2023/10/22 05:54:47;;;;;;;1.17;0.70;;;14.50;99.90;;;;;;4940239;28;20155;-21
2023/10/22 05:57:12;;;;;;;1.40;0.82;;;14.50;99.90;;;;;;4955775;28;20057;-22
2023/10/22 05:59:38;;;;;;;1.43;1.00;;;14.50;99.90;;;;;;4961839;28;20200;-21
2023/10/22 06:02:04;;;;;;;1.15;0.80;;;14.50;99.90;;;;;;4966246;28;20031;-22
2023/10/22 06:04:30;;;;;;;1.57;0.70;;;14.50;99.90;;;;;;4966699;28;20100;-22
2023/10/22 06:06:55;;;;;;;1.10;0.75;;;14.50;99.90;;;;;;4973209;28;20030;-22
2023/10/22 06:09:21;;;;;;;2.80;1.10;;;14.40;99.90;;;;;;4941796;28;20027;-22
2023/10/22 06:11:47;;;;;;;1.10;0.80;;;14.40;99.90;;;;;;4971129;28;20596;-22
2023/10/22 06:14:12;;;;;;;1.57;0.70;;;14.40;99.90;;;;;;4970309;28;20113;-22
2023/10/22 06:16:38;;;;;;;1.98;0.90;;;14.50;99.90;;;;;;4970022;28;20261;-22
2023/10/22 06:19:04;;;;;;;1.00;0.60;;;14.50;99.90;;;;;;4947283;28;20518;-22
2023/10/22 06:21:29;;;;;;;1.27;0.80;;;14.40;99.90;;;;;;4967305;28;20026;-22
2023/10/22 06:23:55;;;;;;;1.57;0.70;;;14.50;99.90;;;;;;4946302;28;20477;-22
2023/10/22 06:26:21;;;;;;;1.65;0.70;;;14.40;99.90;;;;;;4965750;28;20106;-22
2023/10/22 06:28:48;;;;;;;1.97;0.70;;;14.40;99.90;;;;;;4969267;28;20149;-22
2023/10/22 06:31:14;;;;;;;0.90;0.80;;;14.50;99.90;;;;;;4982216;28;20038;-22
2023/10/22 06:33:40;;;;;;;1.33;0.70;;;14.40;99.90;;;;;;4942964;28;20510;-22
2023/10/22 06:36:17;;;;;;;0.90;0.80;;;14.50;99.90;;;;;;4966477;28;20038;-22
2023/10/22 06:38:44;;;;;;;0.90;0.60;;;13.90;99.90;;;;;;4941374;28;20037;-22
2023/10/22 06:41:15;;;;;;;0.95;0.63;;;14.40;99.90;;;;;;4970112;28;20195;-22
2023/10/22 06:43:41;;;;;;;0.85;0.70;;;14.40;99.90;;;;;;4955324;28;20117;-22
2023/10/22 06:46:07;;;;;;;2.25;0.70;;;14.40;99.90;;;;;;4972016;28;20060;-22
2023/10/22 06:48:33;;;;;;;0.80;0.60;;;14.40;99.90;;;;;;4963462;28;20343;-22
2023/10/22 06:50:59;;;;;;;0.80;0.60;;;14.40;99.90;;;;;;4957358;28;20778;-22
2023/10/22 06:53:28;;;;;;;1.05;0.70;;;14.50;99.90;;;;;;4952022;28;20072;-22
2023/10/22 06:55:53;;;;;;;2.03;0.82;;;14.50;99.90;;;;;;4939607;28;20074;-22
2023/10/22 06:58:19;;;;;;;1.10;0.63;;;14.50;99.90;;;;;;4970407;28;20316;-22
2023/10/22 07:00:45;;;;;;;1.92;0.77;;;13.40;99.90;;;;;;4966208;28;20026;-21
2023/10/22 07:03:10;;;;;;;2.17;0.70;;;14.50;99.90;;;;;;4962539;28;20515;-21
2023/10/22 07:05:36;;;;;;;1.02;0.63;;;14.50;99.90;;;;;;4960280;28;20098;-21
2023/10/22 07:08:03;;;;;;;1.00;0.70;;;14.60;99.90;;;;;;4965102;28;20061;-21
2023/10/22 07:10:28;;;;;;;1.30;0.73;;;14.60;99.90;;;;;;4933873;28;20342;-22
2023/10/22 07:12:54;;;;;;;1.57;0.80;;;14.70;99.90;;;;;;4984622;28;20034;-22
2023/10/22 07:15:21;;;;;;;1.10;0.82;;;14.70;99.90;;;;;;4954009;28;20042;-22
2023/10/22 07:17:48;;;;;;;1.45;0.90;;;14.70;99.90;;;;;;4968129;28;20236;-22
2023/10/22 07:20:13;;;;;;;1.67;0.80;;;14.70;99.90;;;;;;4969507;28;20030;-22
2023/10/22 07:22:39;;;;;;;1.13;0.88;;;14.80;99.90;;;;;;4958025;28;20520;-22
2023/10/22 07:25:06;;;;;;;2.25;1.15;;;14.80;99.90;;;;;;4947981;28;20042;-22
2023/10/22 07:27:32;;;;;;;2.70;0.90;;;14.80;99.90;;;;;;4961530;28;20683;-22
2023/10/22 07:29:57;;;;;;;1.30;0.93;;;14.90;99.90;;;;;;4954298;28;20133;-22
2023/10/22 07:32:23;;;;;;;1.75;0.90;;;14.90;99.90;;;;;;4971172;28;20030;-22
2023/10/22 07:34:49;;;;;;;1.50;1.10;;;15.00;99.90;;;;;;4964587;28;20115;-22
2023/10/22 07:37:14;;;;;;;1.30;0.93;;;15.00;99.90;;;;;;4961869;28;20037;-22
2023/10/22 07:39:40;;;;;;;1.90;1.00;;;15.10;99.90;;;;;;4940124;28;20109;-23
2023/10/22 07:42:06;;;;;;;2.15;1.10;;;15.20;99.90;;;;;;4953250;28;20038;-22
2023/10/22 07:44:32;;;;;;;1.50;1.07;;;15.20;99.90;;;;;;4967265;28;20045;-22
2023/10/22 07:46:57;;;;;;;1.33;1.00;;;15.30;99.90;;;;;;4955147;28;20460;-22
2023/10/22 07:49:24;;;;;;;1.60;0.90;;;15.30;99.90;;;;;;4950095;28;20121;-22
2023/10/22 07:51:49;;;;;;;1.42;0.95;;;15.40;99.90;;;;;;4960216;28;20026;-22
2023/10/22 07:54:15;;;;;;;6.88;1.33;;;15.40;99.90;;;;;;4951698;28;20374;-22
2023/10/22 07:56:41;;;;;;;1.90;1.20;;;15.50;99.90;;;;;;4936711;28;20026;-22
2023/10/22 07:59:07;;;;;;;2.03;0.93;;;15.50;99.90;;;;;;4982298;28;20077;-22
2023/10/22 08:01:32;;;;;;;1.17;0.80;;;15.60;99.90;;;;;;4960183;28;20076;-22
2023/10/22 08:03:58;;;;;;;3.83;1.35;;;15.60;99.90;;;;;;4962705;28;20037;-22
2023/10/22 08:06:23;;;;;;;2.27;1.00;;;15.60;99.90;;;;;;4964495;28;20034;-22
2023/10/22 08:08:54;;;;;;;1.80;0.95;;;15.70;99.90;;;;;;4959364;28;20026;-22
2023/10/22 08:11:20;;;;;;;1.53;0.87;;;15.70;99.90;;;;;;4951441;28;23003;-22
2023/10/22 08:13:46;;;;;;;2.40;0.90;;;15.80;99.90;;;;;;4966056;28;20136;-22
2023/10/22 08:16:12;;;;;;;1.45;0.90;;;15.80;99.90;;;;;;4957977;28;20109;-23
2023/10/22 08:18:37;;;;;;;1.07;0.70;;;15.90;99.90;;;;;;4967845;28;20097;-22
2023/10/22 08:21:04;;;;;;;1.48;0.80;;;16.00;99.90;;;;;;4968182;28;20034;-22
2023/10/22 08:23:30;;;;;;;2.38;0.90;;;16.00;99.90;;;;;;4958195;28;21154;-22
2023/10/22 08:25:57;;;;;;;1.00;0.80;;;16.00;99.90;;;;;;4963388;28;20065;-22
2023/10/22 08:28:23;;;;;;;1.07;0.70;;;16.10;99.90;;;;;;4939649;28;20641;-22
2023/10/22 08:30:49;;;;;;;1.23;0.70;;;16.10;99.90;;;;;;4960227;28;20042;-22
2023/10/22 08:33:15;;;;;;;0.60;0.55;;;16.10;99.90;;;;;;4973581;28;20085;-22
2023/10/22 08:35:41;;;;;;;0.88;0.77;;;16.20;99.90;;;;;;4920808;28;20042;-22
2023/10/22 08:38:07;;;;;;;1.40;0.70;;;16.20;99.90;;;;;;4968173;28;20053;-22
2023/10/22 08:40:38;;;;;;;1.65;0.80;;;16.20;99.90;;;;;;4951273;28;20084;-22
2023/10/22 08:43:16;;;;;;;0.88;0.70;;;16.20;99.90;;;;;;4940370;28;20061;-22
2023/10/22 08:45:48;;;;;;;1.50;0.70;;;16.20;99.90;;;;;;4943371;28;20038;-22
2023/10/22 08:48:16;;;;;;;1.20;0.90;;;16.20;99.90;;;;;;4960861;28;20084;-22
2023/10/22 08:50:48;;;;;;;0.90;0.70;;;16.20;99.90;;;;;;4976597;28;20022;-22
2023/10/22 08:53:15;;;;;;;1.60;0.80;;;16.20;99.90;;;;;;4959507;28;20559;-22
2023/10/22 08:55:46;;;;;;;1.35;0.80;;;16.20;99.90;;;;;;4949749;28;20034;-22
2023/10/22 08:58:15;;;;;;;1.40;0.80;;;16.10;99.90;;;;;;4958603;28;20042;-22
2023/10/22 09:00:47;;;;;;;1.30;0.93;;;16.20;99.90;;;;;;4952341;28;20030;-22
2023/10/22 09:03:14;;;;;;;1.50;0.80;;;16.20;99.90;;;;;;4965401;28;20037;-22
2023/10/22 09:05:41;;;;;;;1.40;0.90;;;16.20;99.90;;;;;;4965364;28;20039;-22
2023/10/22 09:08:06;;;;;;;0.82;0.70;;;16.20;99.90;;;;;;4968334;28;20493;-22
2023/10/22 09:10:34;;;;;;;1.60;1.10;;;16.20;99.90;;;;;;4956300;28;20045;-22
2023/10/22 09:13:22;;;;;;;1.02;0.93;;;16.20;99.90;;;;;;4962116;28;20031;-22
2023/10/22 09:15:50;;;;;;;1.88;0.98;;;16.20;99.90;;;;;;4931668;28;20039;-22
2023/10/22 09:18:17;;;;;;;1.83;0.98;;;16.30;99.90;;;;;;4950218;28;20411;-22
2023/10/22 09:20:44;;;;;;;1.98;0.90;;;16.30;99.90;;;;;;4962635;28;20030;-22
2023/10/22 09:23:18;;;;;;;1.10;1.00;;;16.30;99.90;;;;;;4967253;28;20080;-22
2023/10/22 09:25:51;;;;;;;1.10;0.90;;;16.30;99.90;;;;;;4956355;28;20368;-22
2023/10/22 09:28:27;;;;;;;1.70;0.82;;;16.40;99.90;;;;;;4961021;28;20074;-22
2023/10/22 09:31:01;;;;;;;1.27;0.85;;;16.40;99.90;;;;;;4941195;28;20506;-22
2023/10/22 09:33:37;;;;;;;1.40;1.00;;;16.40;99.90;;;;;;4962997;28;20114;-21
2023/10/22 09:36:04;;;;;;;1.30;0.90;;;16.40;99.90;;;;;;4964144;28;20022;-22
2023/10/22 09:38:47;;;;;;;3.05;1.10;;;16.40;99.90;;;;;;4966382;28;20188;-21
2023/10/22 09:41:29;;;;;;;2.40;1.15;;;16.40;99.90;;;;;;4963137;28;20030;-22
2023/10/22 09:43:59;;;;;;;1.40;0.90;;;16.40;99.90;;;;;;4961519;28;20126;-21
2023/10/22 09:46:35;;;;;;;1.40;1.00;;;16.40;99.90;;;;;;4942209;28;20026;-21
2023/10/22 09:49:03;;;;;;;2.60;1.27;;;16.50;99.90;;;;;;4967672;28;20034;-21
2023/10/22 09:51:35;;;;;;;1.95;1.20;;;16.50;99.90;;;;;;4979210;28;20022;-21
2023/10/22 09:54:06;;;;;;;1.35;1.10;;;16.60;99.90;;;;;;4966394;28;20026;-21
2023/10/22 09:56:37;;;;;;;1.95;1.20;;;16.60;99.90;;;;;;4957081;28;20027;-20
2023/10/22 09:59:07;;;;;;;1.73;1.02;;;16.70;99.90;;;;;;4973737;28;20040;-22
2023/10/22 10:01:34;;;;;;;2.40;1.00;;;16.80;99.90;;;;;;4945764;28;20520;-21
2023/10/22 10:04:03;;;;;;;1.60;0.85;;;16.80;99.90;;;;;;4980767;28;20026;-22
2023/10/22 10:06:30;;;;;;;1.55;1.10;;;16.80;99.90;;;;;;4965419;28;20128;-22
2023/10/22 10:08:58;;;;;;;2.65;1.40;;;16.80;99.90;;;;;;4971372;28;20022;-21
2023/10/22 10:11:25;;;;;;;1.70;1.20;;;16.60;99.90;;;;;;4967661;28;20121;-21
2023/10/22 10:13:50;;;;;;;1.50;1.10;;;16.80;99.90;;;;;;4941018;28;20018;-21
2023/10/22 10:16:16;;;;;;;1.98;1.23;;;16.80;99.90;;;;;;4949788;28;20101;-22
2023/10/22 10:19:08;;;;;;;2.10;1.17;;;16.90;99.90;;;;;;4962779;28;20377;-21
2023/10/22 10:21:33;;;;;;;2.03;1.25;;;16.90;99.90;;;;;;4959934;28;20309;-21
2023/10/22 10:24:17;;;;;;;2.38;1.15;;;17.00;99.90;;;;;;4964657;28;20484;-21
2023/10/22 10:26:44;;;;;;;1.55;1.05;;;17.10;99.90;;;;;;4957812;28;20046;-21
2023/10/22 10:29:24;;;;;;;1.27;0.90;;;17.30;99.90;;;;;;4955115;28;20031;-21
2023/10/22 10:31:52;;;;;;;0.95;0.70;;;17.50;99.90;;;;;;4966632;28;20599;-22
2023/10/22 10:34:30;;;;;;;2.05;1.02;;;17.70;99.90;;;;;;4926269;28;20472;-22
2023/10/22 10:37:07;;;;;;;1.25;0.90;;;18.00;99.90;;;;;;4981475;28;20042;-22
2023/10/22 10:39:41;;;;;;;1.05;0.70;;;18.40;99.90;;;;;;4983170;28;20092;-22
2023/10/22 10:42:07;;;;;;;0.80;0.80;;;18.70;99.90;;;;;;4962309;28;20061;-22
2023/10/22 10:44:56;;;;;;;1.05;0.57;;;18.90;99.90;;;;;;4951229;28;20045;-22
2023/10/22 10:47:22;;;;;;;0.88;0.70;;;19.10;99.90;;;;;;4965349;28;20030;-22
2023/10/22 10:50:10;;;;;;;0.90;0.70;;;19.20;99.90;;;;;;4935052;28;20045;-22
2023/10/22 10:52:45;;;;;;;1.00;0.70;;;19.20;99.90;;;;;;4952797;28;20062;-22
2023/10/22 10:55:20;;;;;;;1.60;0.80;;;19.20;99.90;;;;;;4960616;28;20331;-22
2023/10/22 10:57:54;;;;;;;1.00;0.80;;;19.20;99.90;;;;;;4947257;28;21173;-22
2023/10/22 11:00:31;;;;;;;1.30;0.88;;;19.20;99.90;;;;;;4977314;28;20744;-22
2023/10/22 11:03:07;;;;;;;0.90;0.90;;;19.20;99.90;;;;;;4963712;28;20550;-22
2023/10/22 11:05:38;;;;;;;1.00;0.80;;;19.30;99.90;;;;;;4929370;28;20050;-22
2023/10/22 11:08:12;;;;;;;1.20;0.80;;;19.30;99.90;;;;;;4941927;28;20033;-22
2023/10/22 11:10:38;;;;;;;1.00;0.90;;;19.40;99.90;;;;;;4975811;28;20213;-22
2023/10/22 11:13:06;;;;;;;0.80;0.70;;;19.40;99.90;;;;;;4962547;28;20388;-22
2023/10/22 11:15:37;;;;;;;1.00;0.90;;;19.60;99.90;;;;;;4965512;28;20799;-22
2023/10/22 11:18:08;;;;;;;1.77;1.00;;;19.80;99.90;;;;;;4973719;28;20036;-22
2023/10/22 11:20:34;;;;;;;1.30;0.90;;;20.00;99.90;;;;;;4935819;28;20036;-22
2023/10/22 11:23:00;;;;;;;1.58;1.00;;;20.00;99.90;;;;;;4947572;28;20474;-22
2023/10/22 11:25:27;;;;;;;1.40;1.10;;;18.10;99.90;;;;;;4968063;28;20142;-22
2023/10/22 11:27:54;;;;;;;1.17;0.95;;;20.20;99.90;;;;;;4966211;28;20045;-22
2023/10/22 11:30:33;;;;;;;1.20;1.00;;;20.30;99.90;;;;;;4956948;28;20030;-22
2023/10/22 11:32:59;;;;;;;1.87;1.30;;;20.40;99.90;;;;;;4969055;28;20037;-22
2023/10/22 11:35:31;;;;;;;1.20;0.90;;;20.40;99.90;;;;;;4938530;28;20026;-22
2023/10/22 11:37:59;;;;;;;1.00;0.90;;;20.50;99.90;;;;;;4965821;28;20473;-22
2023/10/22 11:40:30;;;;;;;1.00;0.90;;;20.50;99.90;;;;;;4966174;28;20416;-22
2023/10/22 11:43:02;;;;;;;0.70;0.70;;;20.50;99.90;;;;;;4970291;28;20248;-22
2023/10/22 11:45:34;;;;;;;1.10;0.90;;;20.50;99.90;;;;;;4943193;28;20038;-22
2023/10/22 11:48:13;;;;;;;1.00;0.90;;;20.50;99.90;;;;;;4978487;28;20126;-22
2023/10/22 11:50:43;;;;;;;1.38;0.90;;;20.40;99.90;;;;;;4954578;28;20112;-22
2023/10/22 11:53:09;;;;;;;1.80;0.90;;;20.30;99.90;;;;;;4958826;28;20043;-22
2023/10/22 11:55:35;;;;;;;1.00;0.80;;;20.20;99.90;;;;;;4952475;28;20034;-22
2023/10/22 11:58:00;;;;;;;1.58;0.80;;;20.10;99.90;;;;;;4966454;28;20084;-22
2023/10/22 12:00:26;;;;;;;1.03;0.90;;;20.00;99.90;;;;;;4952841;28;20109;-22
2023/10/22 12:02:52;;;;;;;1.00;0.80;;;19.80;99.90;;;;;;4977776;28;20394;-22
2023/10/22 12:05:18;;;;;;;1.10;0.80;;;19.70;99.90;;;;;;4964681;28;20077;-22
2023/10/22 12:07:44;;;;;;;1.10;0.90;;;19.60;99.90;;;;;;4912926;28;20082;-22
2023/10/22 12:10:10;;;;;;;1.07;0.83;;;19.50;99.90;;;;;;4972747;28;20117;-22
2023/10/22 12:12:36;;;;;;;1.53;1.10;;;19.30;99.90;;;;;;4944034;28;20303;-22
2023/10/22 12:15:04;;;;;;;1.10;0.80;;;19.20;99.90;;;;;;4958657;28;20026;-22
2023/10/22 12:17:30;;;;;;;2.08;1.10;;;19.10;99.90;;;;;;4945901;28;20248;-22
2023/10/22 12:19:56;;;;;;;1.10;0.90;;;19.20;99.90;;;;;;4964309;28;20631;-22
2023/10/22 12:22:22;;;;;;;1.90;1.08;;;19.40;99.90;;;;;;4940850;28;20031;-22
2023/10/22 12:24:53;;;;;;;1.10;1.00;;;19.70;99.90;;;;;;4952825;28;20038;-22
2023/10/22 12:27:19;;;;;;;1.37;1.20;;;20.10;99.90;;;;;;4966648;28;20660;-22
2023/10/22 12:29:45;;;;;;;1.77;1.17;;;20.50;99.90;;;;;;4950488;28;20026;-22
2023/10/22 12:32:11;;;;;;;1.60;1.40;;;20.90;99.90;;;;;;4958856;28;20030;-22
2023/10/22 12:34:36;;;;;;;2.27;1.50;;;21.20;99.90;;;;;;4957486;28;20799;-22
2023/10/22 12:37:02;;;;;;;1.87;1.50;;;21.50;99.90;;;;;;4942889;28;20252;-22
2023/10/22 12:39:28;;;;;;;1.80;1.30;;;21.90;99.90;;;;;;4952813;28;20026;-22
2023/10/22 12:41:53;;;;;;;1.77;1.33;;;22.20;99.90;;;;;;4981058;28;20065;-22
2023/10/22 12:44:23;;;;;;;1.90;1.27;;;22.30;99.90;;;;;;4968428;28;20859;-22
2023/10/22 12:46:50;;;;;;;1.83;1.30;;;22.40;99.90;;;;;;4953781;28;20567;-22
2023/10/22 12:49:16;;;;;;;2.13;1.30;;;22.50;99.90;;;;;;4974110;28;20503;-22
2023/10/22 12:51:41;;;;;;;1.40;1.30;;;22.40;99.90;;;;;;4956878;28;20033;-23